Time;durP1;ratioP1;P1;durP2;ratioP2;P2;SDS_P1;SDS_P2;PMS_P1;PMS_P2;Temp;Humidity;BMP_temperature;BMP_pressure;BME280_temperature;BME280_humidity;BME280_pressure;Samples;Min_cycle;Max_cycle;Signal;HPM_P1;HPM_P2
2022/11/11 00:01:44;;;;;;;13.57;2.00;;;;;;;;;;5083286;28;20048;-82
2022/11/11 00:04:11;;;;;;;10.27;1.58;;;;;;;;;;5090609;28;20040;-81
2022/11/11 00:06:37;;;;;;;7.65;1.83;;;;;;;;;;5077308;28;20058;-81
2022/11/11 00:09:03;;;;;;;12.60;1.95;;;;;;;;;;5102475;28;20055;-80
2022/11/11 00:11:30;;;;;;;9.55;2.08;;;;;;;;;;5103312;28;20048;-82
2022/11/11 00:13:56;;;;;;;11.73;2.03;;;;;;;;;;5100367;28;20058;-81
2022/11/11 00:16:23;;;;;;;15.52;2.42;;;;;;;;;;5073041;28;20056;-82
2022/11/11 00:26:49;;;;;;;14.40;2.53;;;;;;;;;;5101458;28;20054;-79
2022/11/11 00:29:16;;;;;;;10.98;2.13;;;;;;;;;;5080503;28;20040;-80
2022/11/11 00:34:27;;;;;;;9.82;2.25;;;;;;;;;;5094802;28;20097;-83
2022/11/11 00:36:54;;;;;;;13.73;3.05;;;;;;;;;;5095933;28;20059;-81
2022/11/11 00:39:20;;;;;;;12.45;2.25;;;;;;;;;;5094782;28;20052;-82
2022/11/11 00:41:47;;;;;;;11.25;2.25;;;;;;;;;;5095631;28;20044;-80
2022/11/11 00:44:13;;;;;;;11.93;2.30;;;;;;;;;;5095856;28;20671;-82
2022/11/11 00:52:09;;;;;;;14.00;1.95;;;;;;;;;;5098459;28;20048;-82
2022/11/11 00:54:36;;;;;;;11.63;2.40;;;;;;;;;;5098613;28;20048;-82
2022/11/11 00:57:02;;;;;;;13.77;2.30;;;;;;;;;;5099656;28;20062;-82
2022/11/11 00:59:29;;;;;;;8.55;2.30;;;;;;;;;;5099561;28;20056;-81
2022/11/11 01:01:55;;;;;;;16.38;2.10;;;;;;;;;;5083223;28;20083;-82
2022/11/11 01:04:22;;;;;;;13.15;2.53;;;;;;;;;;5078646;28;20045;-81
2022/11/11 01:06:51;;;;;;;14.75;2.83;;;;;;;;;;5093704;28;20614;-81
2022/11/11 01:09:18;;;;;;;12.50;2.78;;;;;;;;;;5095046;28;20071;-83
2022/11/11 01:11:44;;;;;;;14.80;2.38;;;;;;;;;;5094902;28;20052;-82
2022/11/11 01:14:11;;;;;;;14.20;2.70;;;;;;;;;;5075831;28;20449;-81
2022/11/11 01:16:37;;;;;;;10.93;2.72;;;;;;;;;;5074308;28;20625;-80
2022/11/11 01:19:04;;;;;;;10.90;2.20;;;;;;;;;;5057375;28;20095;-83
2022/11/11 01:21:30;;;;;;;8.13;2.47;;;;;;;;;;5074996;28;20048;-83
2022/11/11 01:23:57;;;;;;;13.25;2.60;;;;;;;;;;5074477;28;20079;-82
2022/11/11 01:26:24;;;;;;;14.48;2.80;;;;;;;;;;5074847;28;20162;-80
2022/11/11 01:28:56;;;;;;;10.18;2.47;;;;;;;;;;5075674;28;20044;-82
2022/11/11 01:31:23;;;;;;;10.13;2.15;;;;;;;;;;5077450;28;20052;-82
2022/11/11 01:33:50;;;;;;;13.82;2.60;;;;;;;;;;5058105;28;20052;-81
2022/11/11 01:36:18;;;;;;;9.88;2.40;;;;;;;;;;5074776;28;20471;-82
2022/11/11 01:38:47;;;;;;;10.77;2.30;;;;;;;;;;5057200;28;20473;-82
2022/11/11 01:41:33;;;;;;;11.23;2.30;;;;;;;;;;5074220;28;20112;-78
2022/11/11 01:44:01;;;;;;;10.90;2.40;;;;;;;;;;5055633;28;20045;-82
2022/11/11 01:46:31;;;;;;;7.65;1.98;;;;;;;;;;5076079;28;20138;-82
2022/11/11 01:49:35;;;;;;;8.60;1.90;;;;;;;;;;5079927;28;20068;-81
2022/11/11 01:52:16;;;;;;;13.40;2.10;;;;;;;;;;5078334;28;20064;-83
2022/11/11 01:54:48;;;;;;;9.60;2.30;;;;;;;;;;5082687;28;20460;-81
2022/11/11 01:57:17;;;;;;;14.98;2.35;;;;;;;;;;5078672;28;20206;-82
2022/11/11 01:59:47;;;;;;;10.55;1.70;;;;;;;;;;5078926;28;20048;-81
2022/11/11 02:02:23;;;;;;;9.82;2.20;;;;;;;;;;5080427;28;20091;-79
2022/11/11 02:07:36;;;;;;;13.35;1.65;;;;;;;;;;5056542;28;20055;-81
2022/11/11 02:10:06;;;;;;;11.15;2.00;;;;;;;;;;5053205;28;20060;-82
2022/11/11 02:15:18;;;;;;;15.40;2.30;;;;;;;;;;5077214;28;20048;-81
2022/11/11 02:17:46;;;;;;;10.35;2.00;;;;;;;;;;5087124;28;20064;-81
2022/11/11 02:20:14;;;;;;;10.85;2.10;;;;;;;;;;5095439;28;20079;-80
2022/11/11 02:22:47;;;;;;;9.57;2.13;;;;;;;;;;5094722;28;20056;-81
2022/11/11 02:25:16;;;;;;;10.70;2.17;;;;;;;;;;5093632;28;20049;-81
2022/11/11 02:27:44;;;;;;;7.70;2.00;;;;;;;;;;5088998;28;20072;-84
2022/11/11 02:30:14;;;;;;;11.57;1.88;;;;;;;;;;5083768;28;20064;-81
2022/11/11 02:32:42;;;;;;;9.00;2.05;;;;;;;;;;5090178;28;20059;-83
2022/11/11 02:35:14;;;;;;;8.43;1.98;;;;;;;;;;5082978;28;20048;-82
2022/11/11 02:37:42;;;;;;;10.40;2.00;;;;;;;;;;5063545;28;20079;-81
2022/11/11 02:40:11;;;;;;;8.65;2.13;;;;;;;;;;5064778;28;20048;-82
2022/11/11 02:42:37;;;;;;;8.18;2.00;;;;;;;;;;5067845;28;20053;-80
2022/11/11 02:45:04;;;;;;;12.32;2.45;;;;;;;;;;5088109;28;20044;-80
2022/11/11 02:47:31;;;;;;;8.30;1.83;;;;;;;;;;5088931;28;20523;-81
2022/11/11 02:49:57;;;;;;;7.70;1.85;;;;;;;;;;5084713;28;20040;-79
2022/11/11 02:52:24;;;;;;;8.10;1.88;;;;;;;;;;5078590;28;20048;-82
2022/11/11 02:54:51;;;;;;;9.05;1.83;;;;;;;;;;5078096;28;20075;-82
2022/11/11 02:57:17;;;;;;;14.35;2.10;;;;;;;;;;5077956;28;20052;-82
2022/11/11 02:59:44;;;;;;;12.38;2.08;;;;;;;;;;5076775;28;20056;-81
2022/11/11 03:02:10;;;;;;;9.23;1.77;;;;;;;;;;5076218;28;20112;-82
2022/11/11 03:04:37;;;;;;;8.60;1.67;;;;;;;;;;5077094;28;20266;-81
2022/11/11 03:07:04;;;;;;;5.43;1.60;;;;;;;;;;5074748;28;20090;-81
2022/11/11 03:09:31;;;;;;;10.45;1.80;;;;;;;;;;5096281;28;20132;-81
2022/11/11 03:11:58;;;;;;;15.38;2.30;;;;;;;;;;5095945;28;20098;-83
2022/11/11 03:14:24;;;;;;;8.20;1.92;;;;;;;;;;5088338;28;20075;-81
2022/11/11 03:19:37;;;;;;;13.18;2.30;;;;;;;;;;5077250;28;20051;-81
2022/11/11 03:22:03;;;;;;;7.97;1.90;;;;;;;;;;5076484;28;20052;-82
2022/11/11 03:27:35;;;;;;;12.07;2.20;;;;;;;;;;5078412;28;20374;-81
2022/11/11 03:30:01;;;;;;;13.20;2.05;;;;;;;;;;5076139;28;20048;-82
2022/11/11 03:32:27;;;;;;;9.85;1.90;;;;;;;;;;5075801;28;20036;-81
2022/11/11 03:34:54;;;;;;;8.82;1.73;;;;;;;;;;5059390;28;20163;-82
2022/11/11 03:40:06;;;;;;;10.75;2.20;;;;;;;;;;5074897;28;20048;-81
2022/11/11 03:42:33;;;;;;;7.88;1.77;;;;;;;;;;5077669;28;20048;-82
2022/11/11 03:44:59;;;;;;;5.00;1.40;;;;;;;;;;5077619;28;20059;-82
2022/11/11 03:47:25;;;;;;;12.63;1.90;;;;;;;;;;5077231;28;20520;-82
2022/11/11 03:49:52;;;;;;;12.10;1.73;;;;;;;;;;5059767;28;20053;-83
2022/11/11 03:52:18;;;;;;;8.48;2.03;;;;;;;;;;5077847;28;20047;-81
2022/11/11 03:54:45;;;;;;;10.18;2.00;;;;;;;;;;5078244;28;20129;-82
2022/11/11 03:57:29;;;;;;;14.27;1.70;;;;;;;;;;5078835;28;20059;-81
2022/11/11 03:59:56;;;;;;;5.45;1.45;;;;;;;;;;5078953;28;20049;-82
2022/11/11 04:10:37;;;;;;;13.30;1.80;;;;;;;;;;5082469;28;20132;-79
2022/11/11 04:16:05;;;;;;;;;;;;;;;;;;5080027;28;20100;-78
2022/11/11 04:25:47;;;;;;;12.02;2.90;;;;;;;;;;5078600;28;20048;-79
2022/11/11 04:26:49;;;;;;;7.32;1.60;;;;;;;;;;5083951;28;20108;-79
2022/11/11 04:29:27;;;;;;;9.20;1.67;;;;;;;;;;5078287;28;20099;-80
2022/11/11 04:34:42;;;;;;;6.25;1.33;;;;;;;;;;5067049;28;20516;-82
2022/11/11 04:37:09;;;;;;;8.63;1.45;;;;;;;;;;5079167;28;20055;-82
2022/11/11 04:42:21;;;;;;;8.57;1.63;;;;;;;;;;5079572;28;20052;-81
2022/11/11 04:47:33;;;;;;;10.63;1.52;;;;;;;;;;5075437;28;20091;-82
2022/11/11 04:49:59;;;;;;;7.95;1.45;;;;;;;;;;5074250;28;20051;-81
2022/11/11 04:52:32;;;;;;;5.95;1.35;;;;;;;;;;5074518;28;20053;-81
2022/11/11 04:57:47;;;;;;;13.93;1.80;;;;;;;;;;5075719;28;20116;-81
2022/11/11 05:00:15;;;;;;;7.80;1.50;;;;;;;;;;5074182;28;20060;-82
2022/11/11 05:05:27;;;;;;;7.22;1.40;;;;;;;;;;5071755;28;20363;-82
2022/11/11 05:10:39;;;;;;;6.23;1.20;;;;;;;;;;5074335;28;20072;-80
2022/11/11 05:21:39;;;;;;;7.28;1.20;;;;;;;;;;5047684;28;20121;-79
2022/11/11 05:26:51;;;;;;;5.72;1.00;;;;;;;;;;5092159;28;20048;-80
2022/11/11 05:29:17;;;;;;;5.20;1.20;;;;;;;;;;5090600;28;20044;-79
2022/11/11 05:31:44;;;;;;;7.68;1.20;;;;;;;;;;5092989;28;20416;-79
2022/11/11 05:34:16;;;;;;;9.45;1.65;;;;;;;;;;5091553;28;20139;-80
2022/11/11 05:36:43;;;;;;;6.35;1.30;;;;;;;;;;5092185;28;20044;-80
2022/11/11 05:39:09;;;;;;;6.15;1.20;;;;;;;;;;5090832;28;20048;-78
2022/11/11 05:41:35;;;;;;;12.13;1.50;;;;;;;;;;5094511;28;20054;-81
2022/11/11 05:44:02;;;;;;;10.10;1.63;;;;;;;;;;5074847;28;20056;-80
2022/11/11 05:46:28;;;;;;;7.47;1.27;;;;;;;;;;5111356;28;20051;-80
2022/11/11 05:51:41;;;;;;;6.07;1.40;;;;;;;;;;5103892;28;20120;-82
2022/11/11 05:54:07;;;;;;;8.20;1.48;;;;;;;;;;5092282;28;20048;-82
2022/11/11 05:56:33;;;;;;;7.43;1.48;;;;;;;;;;5093917;28;20135;-80
2022/11/11 05:59:00;;;;;;;9.98;1.48;;;;;;;;;;5094221;28;20058;-82
2022/11/11 06:01:26;;;;;;;8.65;1.70;;;;;;;;;;5075924;28;20050;-82
2022/11/11 06:03:53;;;;;;;8.38;1.45;;;;;;;;;;5092330;28;20044;-81
2022/11/11 06:06:19;;;;;;;6.97;2.25;;;;;;;;;;5094155;28;20108;-82
2022/11/11 06:08:46;;;;;;;10.50;1.33;;;;;;;;;;5095603;28;20127;-80
2022/11/11 06:11:12;;;;;;;8.55;1.00;;;;;;;;;;5083740;28;20059;-81
2022/11/11 06:13:38;;;;;;;6.03;0.98;;;;;;;;;;5084054;28;20040;-82
2022/11/11 06:16:05;;;;;;;10.90;1.30;;;;;;;;;;5095372;28;20048;-82
2022/11/11 06:18:31;;;;;;;5.47;1.08;;;;;;;;;;5076522;28;20139;-81
2022/11/11 06:20:58;;;;;;;8.10;1.00;;;;;;;;;;5074064;28;20386;-81
2022/11/11 06:23:25;;;;;;;4.03;0.82;;;;;;;;;;5093179;28;20040;-81
2022/11/11 06:28:39;;;;;;;5.93;1.27;;;;;;;;;;5090279;28;20075;-80
2022/11/11 06:31:06;;;;;;;9.02;1.60;;;;;;;;;;5075394;28;20572;-81
2022/11/11 06:33:36;;;;;;;10.77;1.38;;;;;;;;;;5093219;28;20119;-82
2022/11/11 06:36:06;;;;;;;9.98;1.23;;;;;;;;;;5092668;28;20114;-82
2022/11/11 06:38:32;;;;;;;3.85;1.00;;;;;;;;;;5073307;28;20527;-82
2022/11/11 06:40:59;;;;;;;5.60;1.58;;;;;;;;;;5091211;28;20075;-80
2022/11/11 06:43:25;;;;;;;3.30;1.00;;;;;;;;;;5090156;28;20051;-80
2022/11/11 06:45:53;;;;;;;6.60;1.10;;;;;;;;;;5093073;28;20094;-81
2022/11/11 06:48:20;;;;;;;5.57;1.00;;;;;;;;;;5094249;28;20051;-82
2022/11/11 06:50:47;;;;;;;6.43;0.98;;;;;;;;;;5094185;28;20447;-82
2022/11/11 06:53:14;;;;;;;6.22;1.13;;;;;;;;;;5068781;28;20494;-81
2022/11/11 06:55:41;;;;;;;11.25;1.17;;;;;;;;;;5059227;28;20082;-80
2022/11/11 06:58:09;;;;;;;11.63;1.48;;;;;;;;;;5083805;28;20051;-80
2022/11/11 07:00:35;;;;;;;6.18;0.88;;;;;;;;;;5088325;28;20048;-77
2022/11/11 07:03:03;;;;;;;4.18;0.65;;;;;;;;;;5094802;28;20044;-83
2022/11/11 07:05:30;;;;;;;9.05;1.40;;;;;;;;;;5099974;28;20044;-81
2022/11/11 07:08:00;;;;;;;9.70;0.93;;;;;;;;;;5096008;28;20540;-81
2022/11/11 07:10:26;;;;;;;5.78;1.00;;;;;;;;;;5097576;28;20040;-81
2022/11/11 07:12:52;;;;;;;7.47;1.00;;;;;;;;;;5097770;28;20040;-83
2022/11/11 07:15:19;;;;;;;6.20;0.70;;;;;;;;;;5098790;28;20048;-82
2022/11/11 07:17:45;;;;;;;9.23;1.17;;;;;;;;;;5101487;28;20087;-82
2022/11/11 07:20:12;;;;;;;9.38;1.58;;;;;;;;;;5097868;28;20062;-82
2022/11/11 07:22:39;;;;;;;3.90;0.77;;;;;;;;;;5097427;28;20052;-81
2022/11/11 07:25:05;;;;;;;4.57;0.90;;;;;;;;;;5100948;28;20059;-80
2022/11/11 07:27:35;;;;;;;4.75;1.15;;;;;;;;;;5099372;28;20104;-81
2022/11/11 07:30:02;;;;;;;5.75;0.77;;;;;;;;;;5098214;28;20044;-80
2022/11/11 07:32:29;;;;;;;3.38;0.95;;;;;;;;;;5095913;28;20143;-80
2022/11/11 07:34:55;;;;;;;4.32;0.80;;;;;;;;;;5093135;28;20047;-82
2022/11/11 07:37:21;;;;;;;4.68;0.82;;;;;;;;;;5096163;28;20048;-81
2022/11/11 07:39:48;;;;;;;7.28;0.90;;;;;;;;;;5096393;28;20056;-81
2022/11/11 07:42:14;;;;;;;6.82;0.80;;;;;;;;;;5099745;28;20048;-80
2022/11/11 07:44:57;;;;;;;6.80;1.00;;;;;;;;;;5080817;28;20040;-80
2022/11/11 07:47:23;;;;;;;4.70;0.90;;;;;;;;;;5078769;28;20198;-82
2022/11/11 07:49:49;;;;;;;4.38;0.60;;;;;;;;;;5095030;28;20044;-80
2022/11/11 07:52:16;;;;;;;9.35;1.17;;;;;;;;;;5094636;28;20047;-81
2022/11/11 07:54:42;;;;;;;4.72;0.93;;;;;;;;;;5080990;28;20055;-83
2022/11/11 07:57:09;;;;;;;5.93;1.00;;;;;;;;;;5102413;28;20056;-83
2022/11/11 07:59:35;;;;;;;8.02;1.00;;;;;;;;;;5097950;28;20056;-82
2022/11/11 08:02:02;;;;;;;5.88;0.98;;;;;;;;;;5093733;28;20231;-81
2022/11/11 08:04:28;;;;;;;4.70;0.95;;;;;;;;;;5091138;28;20538;-81
2022/11/11 08:06:54;;;;;;;3.90;0.95;;;;;;;;;;5080045;28;20061;-81
2022/11/11 08:09:21;;;;;;;8.00;1.05;;;;;;;;;;5097376;28;20051;-82
2022/11/11 08:14:33;;;;;;;7.13;0.97;;;;;;;;;;5102897;28;20044;-78
2022/11/11 08:16:59;;;;;;;6.20;0.88;;;;;;;;;;5107178;28;20051;-81
2022/11/11 08:19:26;;;;;;;6.28;0.93;;;;;;;;;;5110954;28;20044;-81
2022/11/11 08:21:52;;;;;;;5.07;1.23;;;;;;;;;;5109821;28;20039;-81
2022/11/11 08:24:19;;;;;;;6.75;0.80;;;;;;;;;;5107537;28;20043;-80
2022/11/11 08:27:05;;;;;;;4.90;1.00;;;;;;;;;;5092017;28;20052;-76
2022/11/11 08:29:32;;;;;;;10.77;1.30;;;;;;;;;;5109582;28;20044;-80
2022/11/11 08:31:58;;;;;;;8.73;1.08;;;;;;;;;;5093997;28;20044;-82
2022/11/11 08:34:24;;;;;;;4.60;0.98;;;;;;;;;;5092337;28;20135;-82
2022/11/11 08:36:51;;;;;;;5.00;1.15;;;;;;;;;;5093742;28;20131;-82
2022/11/11 08:39:17;;;;;;;6.88;0.88;;;;;;;;;;5092301;28;20575;-81
2022/11/11 08:41:44;;;;;;;10.65;1.13;;;;;;;;;;5082223;28;20058;-81
2022/11/11 08:44:10;;;;;;;4.38;0.98;;;;;;;;;;5092596;28;20051;-79
2022/11/11 08:46:37;;;;;;;5.45;0.98;;;;;;;;;;5079831;28;20218;-80
2022/11/11 08:49:03;;;;;;;6.40;0.80;;;;;;;;;;5089706;28;20047;-78
2022/11/11 08:51:30;;;;;;;4.43;0.95;;;;;;;;;;5090792;28;20157;-77
2022/11/11 08:54:07;;;;;;;3.60;0.80;;;;;;;;;;5086557;28;20085;-79
2022/11/11 08:56:33;;;;;;;5.85;1.27;;;;;;;;;;5084017;28;20048;-78
2022/11/11 08:59:00;;;;;;;5.10;0.77;;;;;;;;;;5065653;28;20048;-80
2022/11/11 09:01:26;;;;;;;3.13;0.70;;;;;;;;;;5085092;28;20480;-80
2022/11/11 09:03:53;;;;;;;4.00;0.90;;;;;;;;;;5093834;28;20502;-80
2022/11/11 09:06:20;;;;;;;5.28;0.82;;;;;;;;;;5082077;28;20080;-79
2022/11/11 09:08:46;;;;;;;2.67;0.60;;;;;;;;;;5078307;28;20067;-81
2022/11/11 09:11:13;;;;;;;4.53;0.93;;;;;;;;;;5097679;28;20047;-79
2022/11/11 09:13:39;;;;;;;4.50;0.60;;;;;;;;;;5104049;28;20052;-79
2022/11/11 09:16:06;;;;;;;4.32;0.80;;;;;;;;;;5112530;28;20055;-79
2022/11/11 09:18:32;;;;;;;5.68;0.77;;;;;;;;;;5110680;28;20131;-79
2022/11/11 09:20:59;;;;;;;5.40;0.80;;;;;;;;;;5094350;28;20082;-80
2022/11/11 09:23:26;;;;;;;4.97;0.90;;;;;;;;;;5093147;28;20044;-79
2022/11/11 09:25:53;;;;;;;4.32;0.65;;;;;;;;;;5075274;28;20166;-79
2022/11/11 09:28:19;;;;;;;3.58;0.63;;;;;;;;;;5096971;28;20072;-80
2022/11/11 09:30:49;;;;;;;5.20;0.88;;;;;;;;;;5097367;28;20047;-80
2022/11/11 09:33:18;;;;;;;4.82;1.10;;;;;;;;;;5093698;28;20044;-80
2022/11/11 09:35:44;;;;;;;5.45;1.05;;;;;;;;;;5091504;28;20059;-80
2022/11/11 09:38:11;;;;;;;3.58;0.80;;;;;;;;;;5091793;28;20119;-81
2022/11/11 09:40:46;;;;;;;3.78;0.80;;;;;;;;;;5090976;28;20051;-80
2022/11/11 09:43:24;;;;;;;2.22;0.55;;;;;;;;;;5092340;28;20408;-81
2022/11/11 09:46:00;;;;;;;2.95;1.00;;;;;;;;;;5091986;28;20135;-80
2022/11/11 09:48:26;;;;;;;;;;;;;;;;;;5074664;28;20056;-80
2022/11/11 09:50:55;;;;;;;5.38;0.75;;;;;;;;;;5093589;28;20006;-80
2022/11/11 09:53:22;;;;;;;1.60;0.60;;;;;;;;;;5092813;28;20044;-79
2022/11/11 09:55:51;;;;;;;5.05;0.73;;;;;;;;;;5092864;28;20054;-80
2022/11/11 09:58:19;;;;;;;3.38;0.50;;;;;;;;;;5095735;28;20048;-81
2022/11/11 10:00:48;;;;;;;5.03;0.85;;;;;;;;;;5094941;28;20058;-80
2022/11/11 10:03:16;;;;;;;4.22;0.82;;;;;;;;;;5094625;28;20044;-81
2022/11/11 10:05:55;;;;;;;4.47;0.70;;;;;;;;;;5094676;28;20079;-82
2022/11/11 10:08:26;;;;;;;2.90;0.60;;;;;;;;;;5095587;28;20046;-82
2022/11/11 10:10:54;;;;;;;6.82;1.17;;;;;;;;;;5098600;28;20119;-82
2022/11/11 10:13:31;;;;;;;3.85;1.55;;;;;;;;;;5097509;28;20138;-82
2022/11/11 10:16:07;;;;;;;4.57;1.00;;;;;;;;;;5094548;28;20347;-83
2022/11/11 10:18:43;;;;;;;1.80;0.63;;;;;;;;;;5094759;28;20055;-80
2022/11/11 10:21:14;;;;;;;7.10;0.95;;;;;;;;;;5084961;28;20151;-81
2022/11/11 10:23:42;;;;;;;5.63;1.05;;;;;;;;;;5094729;28;20044;-80
2022/11/11 10:26:18;;;;;;;3.17;0.60;;;;;;;;;;5077164;28;20516;-81
2022/11/11 10:28:46;;;;;;;3.40;0.80;;;;;;;;;;5075615;28;20048;-79
2022/11/11 10:31:15;;;;;;;4.50;0.77;;;;;;;;;;5094752;28;20084;-79
2022/11/11 10:34:01;;;;;;;5.97;0.68;;;;;;;;;;5093577;28;20587;-77
2022/11/11 10:36:29;;;;;;;6.47;0.82;;;;;;;;;;5095997;28;20048;-79
2022/11/11 10:39:03;;;;;;;5.95;0.73;;;;;;;;;;5097502;28;20059;-79
2022/11/11 10:41:35;;;;;;;2.17;0.88;;;;;;;;;;5098242;28;20084;-80
2022/11/11 10:44:17;;;;;;;2.88;0.80;;;;;;;;;;5079640;28;20044;-81
2022/11/11 10:46:50;;;;;;;3.35;0.88;;;;;;;;;;5099283;28;20399;-79
2022/11/11 10:49:18;;;;;;;4.47;0.85;;;;;;;;;;5081911;28;20123;-79
2022/11/11 10:51:48;;;;;;;4.47;0.75;;;;;;;;;;5100196;28;20040;-79
2022/11/11 10:54:15;;;;;;;1.75;0.65;;;;;;;;;;5099299;28;20079;-79
2022/11/11 10:56:52;;;;;;;3.28;0.70;;;;;;;;;;5097824;28;20048;-79
2022/11/11 10:59:34;;;;;;;3.63;0.90;;;;;;;;;;5082262;28;20090;-80
2022/11/11 11:02:08;;;;;;;5.50;0.98;;;;;;;;;;5098593;28;20044;-79
2022/11/11 11:04:39;;;;;;;3.15;0.60;;;;;;;;;;5098558;28;20170;-78
2022/11/11 11:07:08;;;;;;;4.93;0.85;;;;;;;;;;5096430;28;20048;-79
2022/11/11 11:09:40;;;;;;;4.10;0.88;;;;;;;;;;5108275;28;20043;-80
2022/11/11 11:12:16;;;;;;;2.50;0.70;;;;;;;;;;5098786;28;20075;-81
2022/11/11 11:14:43;;;;;;;4.37;1.37;;;;;;;;;;5076809;28;20579;-83
2022/11/11 11:17:19;;;;;;;5.10;1.10;;;;;;;;;;5073149;28;20352;-81
2022/11/11 11:20:04;;;;;;;4.60;0.90;;;;;;;;;;5075859;28;20064;-80
2022/11/11 11:22:51;;;;;;;3.45;0.80;;;;;;;;;;5075604;28;20045;-81
2022/11/11 11:25:19;;;;;;;5.45;0.93;;;;;;;;;;5073274;28;20116;-78
2022/11/11 11:27:48;;;;;;;5.03;1.05;;;;;;;;;;5095561;28;20163;-80
2022/11/11 11:30:18;;;;;;;3.78;0.80;;;;;;;;;;5096671;28;20040;-81
2022/11/11 11:32:58;;;;;;;4.35;0.70;;;;;;;;;;5094640;28;20051;-76
2022/11/11 11:35:35;;;;;;;2.22;0.70;;;;;;;;;;5067384;28;20048;-80
2022/11/11 11:38:02;;;;;;;3.08;0.73;;;;;;;;;;5098530;28;20062;-81
2022/11/11 11:40:47;;;;;;;3.10;0.73;;;;;;;;;;5098388;28;20566;-80
2022/11/11 11:43:23;;;;;;;4.20;0.90;;;;;;;;;;5082665;28;20063;-80
2022/11/11 11:45:55;;;;;;;2.80;0.75;;;;;;;;;;5089368;28;20044;-80
2022/11/11 11:48:24;;;;;;;5.85;0.80;;;;;;;;;;5075446;28;20059;-80
2022/11/11 11:51:15;;;;;;;1.90;0.73;;;;;;;;;;5081401;28;20463;-80
2022/11/11 11:53:42;;;;;;;2.57;0.93;;;;;;;;;;5093302;28;20048;-79
2022/11/11 11:56:31;;;;;;;4.68;1.05;;;;;;;;;;5072217;28;20054;-80
2022/11/11 11:59:21;;;;;;;5.35;0.90;;;;;;;;;;5079636;28;20449;-81
2022/11/11 12:01:51;;;;;;;5.35;1.10;;;;;;;;;;5086196;28;20155;-80
2022/11/11 12:04:26;;;;;;;4.90;0.82;;;;;;;;;;5092046;28;20056;-77
2022/11/11 12:06:53;;;;;;;2.53;0.82;;;;;;;;;;5071033;28;20058;-77
2022/11/11 12:09:38;;;;;;;3.38;1.30;;;;;;;;;;5093228;28;20040;-81
2022/11/11 12:12:10;;;;;;;3.15;0.95;;;;;;;;;;5092551;28;20802;-80
2022/11/11 12:14:40;;;;;;;3.05;0.77;;;;;;;;;;5090471;28;20135;-80
2022/11/11 12:17:09;;;;;;;2.22;0.80;;;;;;;;;;5077308;28;20069;-80
2022/11/11 12:19:48;;;;;;;4.03;0.90;;;;;;;;;;5094251;28;20218;-80
2022/11/11 12:22:26;;;;;;;3.70;0.70;;;;;;;;;;5089914;28;20055;-79
2022/11/11 12:24:53;;;;;;;3.22;0.77;;;;;;;;;;5090769;28;20051;-82
2022/11/11 12:27:37;;;;;;;3.40;0.90;;;;;;;;;;5092261;28;20075;-81
2022/11/11 12:30:04;;;;;;;1.88;0.70;;;;;;;;;;5095481;28;20062;-79
2022/11/11 12:32:34;;;;;;;3.85;0.90;;;;;;;;;;5080555;28;20070;-80
2022/11/11 12:35:00;;;;;;;4.18;0.80;;;;;;;;;;5097247;28;20044;-80
2022/11/11 12:37:26;;;;;;;4.55;1.00;;;;;;;;;;5072614;28;20067;-79
2022/11/11 12:39:59;;;;;;;6.78;0.90;;;;;;;;;;5094179;28;20063;-80
2022/11/11 12:42:44;;;;;;;4.35;0.95;;;;;;;;;;5101692;28;20052;-79
2022/11/11 12:45:30;;;;;;;4.13;1.03;;;;;;;;;;5106633;28;20520;-79
2022/11/11 12:47:56;;;;;;;4.05;0.85;;;;;;;;;;5086500;28;20075;-79
2022/11/11 12:50:38;;;;;;;4.53;1.13;;;;;;;;;;5095680;28;20048;-79
2022/11/11 12:53:07;;;;;;;5.05;0.93;;;;;;;;;;5078317;28;20051;-79
2022/11/11 12:55:43;;;;;;;2.95;0.88;;;;;;;;;;5096341;28;20079;-78
2022/11/11 12:58:09;;;;;;;2.45;0.80;;;;;;;;;;5097491;28;20048;-80
2022/11/11 13:00:40;;;;;;;3.83;0.93;;;;;;;;;;5094912;28;20044;-78
2022/11/11 13:03:12;;;;;;;4.95;1.10;;;;;;;;;;5092659;28;20064;-81
2022/11/11 13:05:42;;;;;;;4.22;0.90;;;;;;;;;;5093390;28;20052;-78
2022/11/11 13:08:27;;;;;;;6.15;0.88;;;;;;;;;;5094533;28;20044;-77
2022/11/11 13:11:12;;;;;;;2.88;0.77;;;;;;;;;;5089807;28;20216;-80
2022/11/11 13:13:48;;;;;;;3.03;0.70;;;;;;;;;;5081377;28;20424;-77
2022/11/11 13:16:14;;;;;;;;;;;;;;;;;;5091316;28;20044;-78
2022/11/11 13:18:44;;;;;;;2.65;0.90;;;;;;;;;;5091159;28;19920;-77
2022/11/11 13:21:12;;;;;;;4.03;1.23;;;;;;;;;;5091923;28;20342;-77
2022/11/11 13:23:39;;;;;;;2.45;0.90;;;;;;;;;;5091300;28;20048;-81
2022/11/11 13:26:14;;;;;;;3.58;0.90;;;;;;;;;;5089495;28;20412;-80
2022/11/11 13:28:43;;;;;;;7.97;1.13;;;;;;;;;;5091139;28;20048;-78
2022/11/11 13:31:09;;;;;;;6.75;0.93;;;;;;;;;;5090644;28;20080;-81
2022/11/11 13:33:35;;;;;;;4.55;1.10;;;;;;;;;;5090365;28;20073;-79
2022/11/11 13:36:02;;;;;;;3.88;1.30;;;;;;;;;;5090356;28;20138;-79
2022/11/11 13:38:35;;;;;;;8.57;1.38;;;;;;;;;;5073063;28;20113;-79
2022/11/11 13:41:04;;;;;;;7.28;1.00;;;;;;;;;;5089241;28;20040;-79
2022/11/11 13:43:35;;;;;;;2.45;0.80;;;;;;;;;;5089574;28;20059;-81
2022/11/11 13:46:04;;;;;;;3.05;1.00;;;;;;;;;;5072848;28;20434;-82
2022/11/11 13:48:33;;;;;;;3.83;0.90;;;;;;;;;;5091230;28;20500;-81
2022/11/11 13:51:10;;;;;;;4.90;1.17;;;;;;;;;;5090963;28;20044;-81
2022/11/11 13:53:38;;;;;;;5.18;1.00;;;;;;;;;;5091453;28;20413;-80
2022/11/11 13:56:05;;;;;;;5.05;0.80;;;;;;;;;;5090237;28;20052;-79
2022/11/11 13:58:40;;;;;;;5.70;0.82;;;;;;;;;;5089328;28;20043;-81
2022/11/11 14:01:07;;;;;;;6.82;0.98;;;;;;;;;;5094061;28;20055;-81
2022/11/11 14:03:35;;;;;;;6.72;1.00;;;;;;;;;;5095094;28;20377;-80
2022/11/11 14:06:11;;;;;;;4.43;1.08;;;;;;;;;;5091897;28;20116;-80
2022/11/11 14:08:46;;;;;;;2.75;0.80;;;;;;;;;;5091886;28;20319;-81
2022/11/11 14:11:29;;;;;;;4.65;1.05;;;;;;;;;;5097440;28;20048;-81
2022/11/11 14:13:55;;;;;;;2.40;0.70;;;;;;;;;;5096650;28;20044;-80
2022/11/11 14:16:34;;;;;;;3.22;1.00;;;;;;;;;;5097420;28;20056;-80
2022/11/11 14:19:15;;;;;;;3.88;0.90;;;;;;;;;;5094503;28;20048;-80
2022/11/11 14:21:41;;;;;;;4.07;0.70;;;;;;;;;;5097393;28;20075;-79
2022/11/11 14:24:29;;;;;;;2.90;1.10;;;;;;;;;;5098664;28;20416;-80
2022/11/11 14:27:07;;;;;;;5.45;0.90;;;;;;;;;;5098897;28;20478;-80
2022/11/11 14:29:36;;;;;;;4.03;0.90;;;;;;;;;;5098906;28;20277;-80
2022/11/11 14:32:21;;;;;;;3.65;1.00;;;;;;;;;;5099483;28;20123;-80
2022/11/11 14:35:00;;;;;;;9.02;1.35;;;;;;;;;;5097410;28;20050;-81
2022/11/11 14:37:32;;;;;;;2.47;0.80;;;;;;;;;;5097510;28;20138;-81
2022/11/11 14:39:59;;;;;;;4.75;0.98;;;;;;;;;;5094940;28;20044;-80
2022/11/11 14:42:34;;;;;;;5.38;1.45;;;;;;;;;;5096746;28;20143;-80
2022/11/11 14:45:02;;;;;;;3.10;0.98;;;;;;;;;;5095407;28;20123;-79
2022/11/11 14:47:48;;;;;;;2.60;0.82;;;;;;;;;;5096121;28;20132;-81
2022/11/11 14:50:27;;;;;;;4.97;1.02;;;;;;;;;;5097201;28;20039;-80
2022/11/11 14:52:57;;;;;;;5.88;0.98;;;;;;;;;;5096457;28;20056;-81
2022/11/11 14:55:26;;;;;;;4.85;1.08;;;;;;;;;;5097031;28;20116;-80
2022/11/11 14:57:58;;;;;;;4.18;0.88;;;;;;;;;;5096288;28;20389;-80
2022/11/11 15:00:30;;;;;;;2.95;0.93;;;;;;;;;;5097265;28;20044;-80
2022/11/11 15:03:08;;;;;;;7.28;0.90;;;;;;;;;;5076347;28;20052;-80
2022/11/11 15:05:53;;;;;;;3.85;1.30;;;;;;;;;;5080523;28;20048;-79
2022/11/11 15:08:21;;;;;;;2.95;0.85;;;;;;;;;;5095816;28;20043;-78
2022/11/11 15:11:07;;;;;;;5.65;1.30;;;;;;;;;;5093067;28;20064;-80
2022/11/11 15:13:33;;;;;;;6.45;0.98;;;;;;;;;;5092867;28;20044;-80
2022/11/11 15:16:03;;;;;;;6.40;1.48;;;;;;;;;;5075181;28;20052;-79
2022/11/11 15:18:35;;;;;;;2.60;1.10;;;;;;;;;;5071633;28;20577;-80
2022/11/11 15:21:02;;;;;;;2.22;0.90;;;;;;;;;;5094075;28;20058;-80
2022/11/11 15:23:28;;;;;;;3.45;1.10;;;;;;;;;;5077023;28;20040;-81
2022/11/11 15:26:12;;;;;;;2.55;1.10;;;;;;;;;;5078080;28;20087;-83
2022/11/11 15:28:39;;;;;;;3.83;1.00;;;;;;;;;;5077105;28;20070;-80
2022/11/11 15:31:24;;;;;;;3.75;0.80;;;;;;;;;;5095253;28;20055;-80
2022/11/11 15:34:07;;;;;;;4.23;1.10;;;;;;;;;;5094696;28;20521;-80
2022/11/11 15:36:33;;;;;;;3.08;0.90;;;;;;;;;;5093109;28;20757;-80
2022/11/11 15:39:06;;;;;;;3.03;0.90;;;;;;;;;;5094350;28;20054;-80
2022/11/11 15:41:35;;;;;;;3.83;0.95;;;;;;;;;;5099982;28;20039;-79
2022/11/11 15:44:01;;;;;;;3.92;1.00;;;;;;;;;;5112764;28;20055;-80
2022/11/11 15:46:29;;;;;;;4.32;1.20;;;;;;;;;;5101341;28;20138;-79
2022/11/11 15:48:55;;;;;;;8.45;1.92;;;;;;;;;;5074931;28;20052;-80
2022/11/11 15:51:29;;;;;;;3.92;0.82;;;;;;;;;;5094252;28;20064;-80
2022/11/11 15:54:28;;;;;;;2.78;0.73;;;;;;;;;;5092917;28;20048;-80
2022/11/11 15:56:54;;;;;;;3.42;0.90;;;;;;;;;;5038198;28;20060;-80
2022/11/11 15:59:22;;;;;;;2.47;1.00;;;;;;;;;;5094003;28;20048;-79
2022/11/11 16:01:50;;;;;;;4.78;1.20;;;;;;;;;;5093580;28;20048;-79
2022/11/11 16:04:21;;;;;;;3.78;1.02;;;;;;;;;;5093179;28;20070;-80
2022/11/11 16:07:16;;;;;;;3.58;1.05;;;;;;;;;;5093414;28;20396;-80
2022/11/11 16:09:42;;;;;;;3.85;0.73;;;;;;;;;;5095298;28;20055;-80
2022/11/11 16:12:09;;;;;;;2.13;0.88;;;;;;;;;;5113357;28;20064;-79
2022/11/11 16:14:40;;;;;;;3.67;1.40;;;;;;;;;;5112399;28;20068;-78
2022/11/11 16:17:06;;;;;;;2.25;0.98;;;;;;;;;;5079668;28;20500;-80
2022/11/11 16:19:35;;;;;;;4.88;0.90;;;;;;;;;;5093652;28;20048;-80
2022/11/11 16:22:04;;;;;;;2.08;0.80;;;;;;;;;;5075188;28;20533;-79